Time;durP1;ratioP1;P1;durP2;ratioP2;P2;SDS_P1;SDS_P2;PMS_P1;PMS_P2;Temp;Humidity;BMP_temperature;BMP_pressure;BME280_temperature;BME280_humidity;BME280_pressure;Samples;Min_cycle;Max_cycle;Signal;HPM_P1;HPM_P2
2021/05/05 00:01:17;;;;;;;5.05;3.88;;;10.50;99.90;;;;;;6072329;23;20050;-79
2021/05/05 00:03:49;;;;;;;4.22;3.75;;;10.50;99.90;;;;;;6047552;23;20412;-80
2021/05/05 00:06:17;;;;;;;5.38;2.97;;;10.40;99.90;;;;;;6048936;23;20440;-80
2021/05/05 00:08:49;;;;;;;6.57;3.55;;;10.40;99.90;;;;;;6027752;23;20094;-79
2021/05/05 00:11:20;;;;;;;6.28;2.90;;;10.40;99.90;;;;;;6049070;23;20015;-79
2021/05/05 00:13:51;;;;;;;4.07;3.55;;;10.40;99.90;;;;;;6072627;23;20499;-80
2021/05/05 00:16:17;;;;;;;3.28;2.97;;;10.30;99.90;;;;;;6048590;23;20059;-80
2021/05/05 00:18:44;;;;;;;5.50;3.92;;;10.30;99.90;;;;;;6049922;23;20026;-80
2021/05/05 00:21:15;;;;;;;3.65;2.90;;;10.30;99.90;;;;;;6049451;23;20015;-79
2021/05/05 00:23:41;;;;;;;4.50;3.20;;;10.20;99.90;;;;;;6048927;23;20388;-80
2021/05/05 00:26:08;;;;;;;8.52;3.50;;;10.20;99.90;;;;;;6073088;23;20019;-80
2021/05/05 00:28:39;;;;;;;3.33;2.75;;;10.20;99.90;;;;;;6048394;23;20043;-80
2021/05/05 00:31:11;;;;;;;3.78;3.38;;;10.20;99.90;;;;;;6072645;23;20030;-80
2021/05/05 00:33:43;;;;;;;4.28;3.10;;;10.10;99.90;;;;;;6049211;23;20038;-80
2021/05/05 00:36:14;;;;;;;3.25;2.75;;;10.10;99.90;;;;;;6072789;23;20023;-80
2021/05/05 00:38:40;;;;;;;3.63;3.00;;;10.10;99.90;;;;;;6073640;23;20479;-80
2021/05/05 00:41:09;;;;;;;2.83;2.35;;;10.10;99.90;;;;;;6049289;23;20515;-80
2021/05/05 00:43:35;;;;;;;3.17;2.88;;;10.20;99.90;;;;;;6073703;23;20078;-80
2021/05/05 00:46:07;;;;;;;4.38;2.67;;;10.20;99.90;;;;;;6051208;23;20015;-79
2021/05/05 00:48:33;;;;;;;3.38;2.83;;;10.30;99.90;;;;;;6043252;23;20193;-80
2021/05/05 00:51:01;;;;;;;3.10;2.80;;;10.20;99.90;;;;;;6044426;23;20318;-80
2021/05/05 00:53:35;;;;;;;5.25;2.92;;;10.20;99.90;;;;;;6042768;23;20015;-79
2021/05/05 00:56:03;;;;;;;4.13;2.83;;;10.10;99.90;;;;;;6038892;23;20018;-79
2021/05/05 00:58:33;;;;;;;3.38;2.67;;;10.20;99.90;;;;;;6015166;23;20019;-79
2021/05/05 01:01:00;;;;;;;3.67;3.08;;;10.10;99.90;;;;;;6036925;23;20035;-80
2021/05/05 01:03:33;;;;;;;3.45;2.97;;;10.10;99.90;;;;;;6015368;23;20512;-79
2021/05/05 01:06:02;;;;;;;4.25;3.25;;;10.00;99.90;;;;;;6014075;23;20500;-80
2021/05/05 01:08:35;;;;;;;5.00;3.08;;;10.00;99.90;;;;;;6037376;23;20468;-80
2021/05/05 01:11:03;;;;;;;3.67;3.25;;;9.90;99.90;;;;;;6013813;23;20479;-80
2021/05/05 01:13:31;;;;;;;3.33;3.03;;;9.80;99.90;;;;;;6014494;23;20024;-79
2021/05/05 01:15:58;;;;;;;5.18;3.47;;;9.80;99.90;;;;;;5990308;23;20516;-79
2021/05/05 01:18:27;;;;;;;8.40;4.22;;;9.70;99.90;;;;;;6014255;23;20030;-79
2021/05/05 01:20:56;;;;;;;4.53;3.10;;;9.60;99.90;;;;;;6037929;23;20075;-79
2021/05/05 01:23:26;;;;;;;4.88;3.70;;;9.60;99.90;;;;;;6013470;23;20031;-80
2021/05/05 01:25:54;;;;;;;5.93;3.15;;;9.50;99.90;;;;;;5990481;23;20031;-80
2021/05/05 01:28:23;;;;;;;4.05;3.60;;;9.40;99.90;;;;;;6037081;23;20471;-79
2021/05/05 01:30:50;;;;;;;5.00;3.47;;;9.40;99.90;;;;;;6012849;23;20033;-79
2021/05/05 01:33:22;;;;;;;6.53;3.80;;;9.40;99.90;;;;;;6015118;23;20023;-79
2021/05/05 01:35:54;;;;;;;4.25;3.85;;;9.30;99.90;;;;;;6015041;23;20027;-79
2021/05/05 01:38:20;;;;;;;4.78;3.80;;;9.30;99.90;;;;;;6014508;23;20071;-80
2021/05/05 01:40:52;;;;;;;6.03;4.10;;;9.20;99.90;;;;;;6014664;23;20027;-80
2021/05/05 01:43:20;;;;;;;5.43;3.95;;;9.20;99.90;;;;;;6014087;23;20030;-80
2021/05/05 01:45:47;;;;;;;5.30;4.00;;;9.20;99.90;;;;;;6014028;23;20082;-80
2021/05/05 01:48:16;;;;;;;4.80;4.03;;;9.20;99.90;;;;;;6013997;23;20031;-79
2021/05/05 01:50:44;;;;;;;6.38;4.28;;;9.10;99.90;;;;;;6013633;23;20405;-79
2021/05/05 01:53:17;;;;;;;4.72;4.13;;;9.10;99.90;;;;;;6015188;23;20019;-80
2021/05/05 01:55:45;;;;;;;5.30;4.05;;;9.10;99.90;;;;;;6014149;23;20023;-80
2021/05/05 01:58:14;;;;;;;6.47;3.90;;;9.10;99.90;;;;;;5991512;23;20034;-80
2021/05/05 02:00:48;;;;;;;5.75;4.15;;;9.00;99.90;;;;;;6013280;23;20023;-80
2021/05/05 02:03:18;;;;;;;7.88;4.50;;;9.10;99.90;;;;;;5990889;23;20026;-80
2021/05/05 02:06:05;;;;;;;5.20;4.25;;;9.00;99.90;;;;;;6037156;23;20023;-80
2021/05/05 02:08:45;;;;;;;4.90;4.35;;;9.00;99.90;;;;;;5993200;23;20023;-80
2021/05/05 02:11:12;;;;;;;5.03;4.35;;;9.00;99.90;;;;;;6040013;23;20043;-80
2021/05/05 02:13:44;;;;;;;4.97;4.22;;;9.00;99.90;;;;;;6040176;23;20114;-80
2021/05/05 02:16:16;;;;;;;5.72;3.97;;;9.00;99.90;;;;;;6024221;23;20079;-80
2021/05/05 02:18:53;;;;;;;6.80;4.70;;;9.00;99.90;;;;;;6023450;23;20011;-80
2021/05/05 02:21:25;;;;;;;4.57;4.13;;;9.00;99.90;;;;;;6024515;23;20046;-80
2021/05/05 02:23:56;;;;;;;5.68;4.07;;;9.00;99.90;;;;;;6024758;23;20023;-80
2021/05/05 02:26:28;;;;;;;5.03;3.85;;;9.10;99.90;;;;;;6002532;23;20030;-80
2021/05/05 02:28:59;;;;;;;4.10;3.28;;;9.00;99.90;;;;;;6047242;23;20027;-80
2021/05/05 02:31:48;;;;;;;3.60;2.08;;;9.00;99.90;;;;;;6025973;23;20027;-80
2021/05/05 02:34:15;;;;;;;2.05;1.85;;;8.80;99.90;;;;;;5999656;23;20050;-80
2021/05/05 02:36:48;;;;;;;2.25;1.60;;;8.70;99.90;;;;;;6000751;23;20102;-80
2021/05/05 02:39:20;;;;;;;2.20;1.87;;;8.60;99.90;;;;;;6020078;23;20023;-80
2021/05/05 02:41:52;;;;;;;2.67;1.52;;;8.40;99.90;;;;;;6038801;23;20046;-80
2021/05/05 02:44:19;;;;;;;2.50;1.67;;;8.30;99.90;;;;;;6021852;23;20421;-80
2021/05/05 02:46:45;;;;;;;2.55;1.67;;;8.30;99.90;;;;;;6021921;23;20019;-80
2021/05/05 02:49:17;;;;;;;2.35;1.80;;;8.20;99.90;;;;;;6045960;23;20042;-80
2021/05/05 02:51:44;;;;;;;2.80;1.65;;;8.20;99.90;;;;;;6021767;23;20027;-80
2021/05/05 02:54:16;;;;;;;1.70;1.17;;;8.20;99.90;;;;;;5997798;23;20070;-80
2021/05/05 02:56:50;;;;;;;4.90;1.75;;;8.10;99.90;;;;;;6021388;23;20078;-80
2021/05/05 02:59:24;;;;;;;2.30;1.20;;;8.20;99.90;;;;;;6037050;23;20401;-80
2021/05/05 03:01:55;;;;;;;2.88;1.65;;;8.10;99.90;;;;;;6013770;23;20031;-80
2021/05/05 03:04:24;;;;;;;2.35;1.00;;;8.10;99.90;;;;;;6037673;23;20035;-80
2021/05/05 03:06:56;;;;;;;0.65;0.60;;;8.00;99.90;;;;;;6018421;23;20337;-80
2021/05/05 03:09:26;;;;;;;1.10;0.73;;;7.90;99.90;;;;;;6036837;23;20024;-80
2021/05/05 03:11:58;;;;;;;1.88;0.77;;;7.80;99.90;;;;;;6037100;23;20464;-80
2021/05/05 03:14:29;;;;;;;4.03;2.38;;;7.70;99.90;;;;;;6037748;23;20480;-80
2021/05/05 03:17:01;;;;;;;0.93;0.60;;;7.60;99.90;;;;;;6039011;23;20047;-80
2021/05/05 03:19:32;;;;;;;2.13;0.90;;;7.60;99.90;;;;;;6015799;23;20047;-79
2021/05/05 03:22:01;;;;;;;2.53;1.20;;;7.50;99.90;;;;;;6037047;23;20042;-80
2021/05/05 03:24:28;;;;;;;6.70;2.58;;;7.40;99.90;;;;;;6037468;23;20067;-80
2021/05/05 03:26:56;;;;;;;6.10;2.92;;;7.30;99.90;;;;;;6013713;23;20027;-80
2021/05/05 03:29:24;;;;;;;11.77;5.82;;;7.20;99.90;;;;;;6036846;23;20023;-80
2021/05/05 03:31:52;;;;;;;19.48;9.93;;;7.00;99.90;;;;;;6013787;23;20028;-80
2021/05/05 03:34:19;;;;;;;4.35;2.50;;;6.90;99.90;;;;;;6014776;23;20023;-80
2021/05/05 03:36:46;;;;;;;11.55;5.63;;;6.90;99.90;;;;;;6014833;23;20102;-80
2021/05/05 03:39:19;;;;;;;5.45;3.10;;;6.80;99.90;;;;;;6039674;23;20028;-80
2021/05/05 03:41:47;;;;;;;3.20;1.33;;;6.90;99.90;;;;;;6040104;23;20031;-80
2021/05/05 03:44:14;;;;;;;6.65;2.50;;;6.80;99.90;;;;;;6039797;23;20023;-80
2021/05/05 03:46:42;;;;;;;2.08;0.98;;;6.80;99.90;;;;;;6015935;23;20028;-80
2021/05/05 03:49:15;;;;;;;5.00;2.33;;;6.80;99.90;;;;;;6039863;23;20142;-80
2021/05/05 03:51:48;;;;;;;2.97;1.55;;;6.70;99.90;;;;;;6016154;23;20361;-80
2021/05/05 03:54:17;;;;;;;2.05;1.23;;;6.60;99.90;;;;;;6038597;23;20456;-80
2021/05/05 03:56:45;;;;;;;2.70;1.00;;;6.70;99.90;;;;;;6049082;23;20019;-81
2021/05/05 03:59:17;;;;;;;2.22;1.35;;;6.60;99.90;;;;;;6039592;23;20027;-80
2021/05/05 04:01:44;;;;;;;3.78;1.25;;;6.60;99.90;;;;;;6062023;23;20035;-79
2021/05/05 04:04:12;;;;;;;8.95;8.15;;;6.60;99.90;;;;;;6038970;23;20027;-80
2021/05/05 04:06:39;;;;;;;137.50;70.57;;;6.60;99.90;;;;;;6014530;23;20050;-80
2021/05/05 04:09:06;;;;;;;5.63;3.38;;;6.60;99.90;;;;;;6037949;23;20487;-80
2021/05/05 04:11:39;;;;;;;5.00;2.92;;;6.60;99.90;;;;;;6037458;23;20103;-80
2021/05/05 04:14:07;;;;;;;5.30;3.97;;;6.60;99.90;;;;;;6038389;23;20495;-80
2021/05/05 04:16:52;;;;;;;3.13;1.27;;;6.60;99.90;;;;;;6017700;23;20118;-80
2021/05/05 04:19:38;;;;;;;4.43;1.02;;;6.50;99.90;;;;;;6017773;23;20486;-80
2021/05/05 04:22:25;;;;;;;2.08;0.95;;;6.60;99.90;;;;;;6017678;23;20015;-80
2021/05/05 04:25:11;;;;;;;3.08;1.10;;;6.50;99.90;;;;;;6018031;23;20459;-80
2021/05/05 04:27:39;;;;;;;4.22;1.23;;;6.40;99.90;;;;;;6014272;23;20047;-80
2021/05/05 04:30:07;;;;;;;4.88;0.80;;;6.50;99.90;;;;;;6037615;23;20026;-80
2021/05/05 04:32:35;;;;;;;2.92;1.10;;;6.40;99.90;;;;;;6038125;23;20023;-79
2021/05/05 04:35:03;;;;;;;2.55;1.00;;;6.40;99.90;;;;;;6015190;23;20023;-80
2021/05/05 04:37:30;;;;;;;2.05;1.40;;;6.50;99.90;;;;;;6015182;23;20026;-80
2021/05/05 04:40:00;;;;;;;1.65;0.80;;;6.40;99.90;;;;;;6038723;23;20441;-79
2021/05/05 04:42:33;;;;;;;1.35;1.00;;;6.40;99.90;;;;;;6016074;23;20091;-79
2021/05/05 04:45:07;;;;;;;1.80;1.35;;;6.40;99.90;;;;;;6039509;23;20456;-80
2021/05/05 04:47:39;;;;;;;2.67;1.02;;;6.40;99.90;;;;;;6015735;23;20023;-79
2021/05/05 04:50:12;;;;;;;1.83;0.90;;;6.40;99.90;;;;;;6014871;23;20019;-80
2021/05/05 04:52:45;;;;;;;3.55;1.05;;;6.50;99.90;;;;;;6015297;23;20106;-80
2021/05/05 04:55:18;;;;;;;2.30;1.10;;;6.50;99.90;;;;;;6015466;23;20023;-80
2021/05/05 04:57:45;;;;;;;3.13;1.23;;;6.50;99.90;;;;;;6013893;23;20043;-80
2021/05/05 05:00:13;;;;;;;8.00;3.30;;;6.50;99.90;;;;;;6037187;23;20043;-80
2021/05/05 05:02:41;;;;;;;11.23;5.88;;;6.60;99.90;;;;;;6013572;23;20106;-80
2021/05/05 05:05:08;;;;;;;4.97;2.58;;;6.60;99.90;;;;;;6014026;23;20023;-80
2021/05/05 05:07:36;;;;;;;6.30;2.30;;;6.60;99.90;;;;;;6014726;23;20024;-80
2021/05/05 05:10:05;;;;;;;6.80;3.00;;;6.60;99.90;;;;;;6035602;23;20115;-80
2021/05/05 05:12:32;;;;;;;3.50;2.63;;;6.60;99.90;;;;;;6036758;23;20047;-80
2021/05/05 05:15:01;;;;;;;4.88;2.97;;;6.70;99.90;;;;;;6038205;23;20504;-79
2021/05/05 05:17:28;;;;;;;2.85;1.50;;;6.70;99.90;;;;;;6014614;23;20398;-81
2021/05/05 05:19:55;;;;;;;2.00;1.40;;;6.70;99.90;;;;;;6013592;23;20083;-80
2021/05/05 05:22:28;;;;;;;2.30;1.60;;;6.60;99.90;;;;;;6015019;23;20396;-78
2021/05/05 05:25:03;;;;;;;4.75;3.22;;;6.60;99.90;;;;;;6038386;23;20023;-79
2021/05/05 05:27:31;;;;;;;4.63;2.83;;;6.50;99.90;;;;;;6015634;23;20027;-81
2021/05/05 05:29:58;;;;;;;2.45;1.70;;;6.50;99.90;;;;;;6039219;23;20023;-81
2021/05/05 05:32:26;;;;;;;7.53;3.00;;;6.40;99.90;;;;;;6039186;23;20045;-80
2021/05/05 05:34:54;;;;;;;5.53;4.47;;;6.40;99.90;;;;;;6039808;23;20019;-81
2021/05/05 05:37:21;;;;;;;3.70;1.77;;;6.30;99.90;;;;;;6017598;23;20043;-81
2021/05/05 05:39:54;;;;;;;2.85;2.28;;;6.30;99.90;;;;;;6042908;23;20106;-81
2021/05/05 05:42:21;;;;;;;3.38;1.48;;;6.20;99.90;;;;;;6018836;23;20096;-81
2021/05/05 05:44:47;;;;;;;2.10;1.52;;;6.20;99.90;;;;;;6045922;23;20020;-79
2021/05/05 05:47:14;;;;;;;2.88;1.30;;;6.20;99.90;;;;;;6017715;23;20031;-81
2021/05/05 05:49:42;;;;;;;1.73;1.00;;;6.10;99.90;;;;;;6042667;23;20019;-79
2021/05/05 05:52:09;;;;;;;2.05;1.00;;;6.10;99.90;;;;;;6015936;23;20019;-81
2021/05/05 05:54:37;;;;;;;1.73;1.23;;;6.20;99.90;;;;;;6039169;23;20019;-81
2021/05/05 05:57:05;;;;;;;2.03;0.65;;;6.10;99.90;;;;;;6014225;23;20396;-81
2021/05/05 05:59:38;;;;;;;1.90;0.70;;;6.00;99.90;;;;;;6014691;23;20027;-81
2021/05/05 06:02:07;;;;;;;2.00;1.10;;;5.90;99.90;;;;;;6035057;23;20034;-81
2021/05/05 06:04:36;;;;;;;1.00;0.70;;;5.90;99.90;;;;;;6013663;23;20346;-81
2021/05/05 06:07:04;;;;;;;2.50;1.05;;;5.70;99.90;;;;;;6037550;23;20027;-81
2021/05/05 06:09:31;;;;;;;0.85;0.57;;;5.80;99.90;;;;;;6013588;23;20091;-80
2021/05/05 06:12:04;;;;;;;7.53;0.90;;;5.80;99.90;;;;;;6038138;23;20342;-80
2021/05/05 06:14:36;;;;;;;0.90;0.60;;;5.80;99.90;;;;;;6014690;23;20408;-81
2021/05/05 06:17:04;;;;;;;2.08;0.82;;;5.80;99.90;;;;;;6037212;23;20441;-80
2021/05/05 06:19:31;;;;;;;1.58;0.65;;;5.80;99.90;;;;;;6013558;23;20047;-78
2021/05/05 06:21:59;;;;;;;1.85;0.82;;;5.80;99.90;;;;;;6036661;23;20397;-81
2021/05/05 06:24:27;;;;;;;0.77;0.57;;;5.90;99.90;;;;;;6013656;23;20046;-81
2021/05/05 06:26:55;;;;;;;2.50;1.00;;;5.90;99.90;;;;;;6036307;23;20031;-80
2021/05/05 06:29:25;;;;;;;2.53;1.10;;;5.90;99.90;;;;;;6013136;23;20046;-79
2021/05/05 06:31:53;;;;;;;1.83;0.70;;;5.90;99.90;;;;;;6060082;23;20042;-80
2021/05/05 06:34:20;;;;;;;0.90;0.68;;;6.00;99.90;;;;;;6013317;23;20024;-78
2021/05/05 06:36:53;;;;;;;0.95;0.77;;;6.00;99.90;;;;;;6037944;23;20039;-80
2021/05/05 06:39:21;;;;;;;1.95;0.93;;;6.00;99.90;;;;;;6013313;23;20376;-81
2021/05/05 06:41:49;;;;;;;1.10;0.80;;;5.90;99.90;;;;;;6036576;23;20075;-79
2021/05/05 06:44:17;;;;;;;1.13;0.90;;;5.80;99.90;;;;;;6013981;23;20087;-81
2021/05/05 06:46:54;;;;;;;1.77;0.90;;;5.80;99.90;;;;;;6038441;23;20087;-80
2021/05/05 06:49:23;;;;;;;1.88;1.13;;;5.90;99.90;;;;;;6013522;23;20342;-79
2021/05/05 06:51:51;;;;;;;0.90;0.60;;;6.00;99.90;;;;;;6036359;23;20023;-81
2021/05/05 06:54:19;;;;;;;3.17;0.80;;;6.00;99.90;;;;;;6010243;23;20051;-81
2021/05/05 06:56:47;;;;;;;2.08;0.70;;;6.20;99.90;;;;;;6037349;23;20043;-81
2021/05/05 06:59:14;;;;;;;1.05;0.70;;;6.20;99.90;;;;;;6013023;23;20023;-81
2021/05/05 07:01:42;;;;;;;1.25;0.68;;;6.30;99.90;;;;;;6036397;23;20417;-78
2021/05/05 07:04:10;;;;;;;1.83;0.98;;;6.40;99.90;;;;;;6013238;23;20037;-76
2021/05/05 07:06:38;;;;;;;3.38;1.23;;;6.50;99.90;;;;;;6036795;23;20479;-80
2021/05/05 07:09:10;;;;;;;1.70;1.10;;;6.50;99.90;;;;;;6013852;23;20083;-80
2021/05/05 07:11:39;;;;;;;1.80;1.15;;;6.60;99.90;;;;;;6012108;23;20070;-80
2021/05/05 07:14:07;;;;;;;1.30;0.75;;;6.70;99.90;;;;;;6012550;23;20020;-81
2021/05/05 07:16:35;;;;;;;2.60;1.30;;;6.70;99.90;;;;;;6037111;23;20027;-77
2021/05/05 07:19:08;;;;;;;1.48;1.13;;;6.80;99.90;;;;;;6014053;23;20098;-80
2021/05/05 07:21:35;;;;;;;2.20;1.27;;;6.70;99.90;;;;;;6012241;23;20452;-77
2021/05/05 07:24:03;;;;;;;2.03;1.35;;;6.70;99.90;;;;;;6013019;23;20106;-80
2021/05/05 07:26:30;;;;;;;1.55;1.20;;;6.80;99.90;;;;;;6036250;23;20054;-80
2021/05/05 07:29:03;;;;;;;1.10;0.70;;;6.80;99.90;;;;;;6060640;23;20030;-80
2021/05/05 07:31:31;;;;;;;1.60;1.10;;;6.70;99.90;;;;;;6036867;23;20023;-81
2021/05/05 07:34:00;;;;;;;2.20;0.93;;;6.70;99.90;;;;;;6013482;23;20023;-80
2021/05/05 07:36:28;;;;;;;2.30;1.40;;;6.80;99.90;;;;;;6036816;23;20023;-80
2021/05/05 07:47:12;;;;;;;2.72;1.67;;;7.10;99.90;;;;;;6036612;23;20042;-80
2021/05/05 07:49:47;;;;;;;3.80;1.70;;;7.20;99.90;;;;;;6010428;23;20030;-81
2021/05/05 07:52:15;;;;;;;2.97;1.60;;;7.20;99.90;;;;;;6011934;23;20356;-80
2021/05/05 07:54:41;;;;;;;3.20;1.38;;;7.20;99.90;;;;;;6012263;23;20095;-81
2021/05/05 07:57:08;;;;;;;3.58;1.48;;;7.20;99.90;;;;;;6012485;23;20062;-80
2021/05/05 07:59:35;;;;;;;2.17;1.40;;;7.20;99.90;;;;;;6013201;23;20078;-80
2021/05/05 08:02:04;;;;;;;2.15;1.10;;;7.30;99.90;;;;;;6036083;23;20026;-80
2021/05/05 08:04:32;;;;;;;2.15;1.40;;;7.30;99.90;;;;;;6012474;23;20356;-79
2021/05/05 08:07:04;;;;;;;1.50;1.35;;;7.30;99.90;;;;;;6036303;23;20678;-80
2021/05/05 08:09:30;;;;;;;2.22;1.40;;;7.20;99.90;;;;;;6036194;23;20019;-79
2021/05/05 08:11:57;;;;;;;3.10;1.38;;;7.20;99.90;;;;;;6059708;23;20318;-80
2021/05/05 08:14:29;;;;;;;2.38;1.77;;;7.20;99.90;;;;;;6037806;23;20016;-80
2021/05/05 08:16:56;;;;;;;3.67;1.73;;;7.20;99.90;;;;;;6036308;23;20398;-80
2021/05/05 08:19:28;;;;;;;2.30;1.60;;;7.20;99.90;;;;;;6013667;23;20023;-80
2021/05/05 08:21:55;;;;;;;3.17;2.22;;;7.40;99.90;;;;;;6035164;23;20028;-79
2021/05/05 08:24:28;;;;;;;2.58;1.60;;;7.40;99.90;;;;;;6060171;23;20019;-78
2021/05/05 08:27:00;;;;;;;3.80;1.80;;;7.40;99.90;;;;;;6015352;23;20079;-80
2021/05/05 08:29:28;;;;;;;3.22;1.83;;;7.40;99.90;;;;;;6014193;23;20030;-80
2021/05/05 08:31:56;;;;;;;3.28;2.00;;;7.40;99.90;;;;;;6037432;23;20023;-80
2021/05/05 08:34:27;;;;;;;1.83;1.70;;;7.40;99.90;;;;;;6014327;23;20412;-80
2021/05/05 08:37:01;;;;;;;2.13;1.92;;;7.30;99.90;;;;;;6037614;23;20082;-80
2021/05/05 08:39:28;;;;;;;1.95;1.60;;;7.30;99.90;;;;;;6037894;23;20118;-79
2021/05/05 08:41:58;;;;;;;2.47;2.05;;;7.20;99.90;;;;;;6037595;23;20030;-80
2021/05/05 08:44:25;;;;;;;3.65;1.73;;;7.20;99.90;;;;;;6039900;23;20365;-80
2021/05/05 08:46:57;;;;;;;2.65;1.58;;;7.20;99.90;;;;;;6039066;23;20015;-80
2021/05/05 08:49:32;;;;;;;2.50;1.80;;;7.20;99.90;;;;;;6039037;23;20023;-80
2021/05/05 08:52:01;;;;;;;3.53;2.10;;;7.10;99.90;;;;;;6037577;23;20043;-80
2021/05/05 08:54:32;;;;;;;2.13;1.70;;;7.10;99.90;;;;;;6037927;23;20070;-79
2021/05/05 08:56:59;;;;;;;3.53;1.90;;;7.00;99.90;;;;;;6037940;23;20023;-78
2021/05/05 08:59:27;;;;;;;3.13;2.10;;;7.00;99.90;;;;;;6014402;23;20084;-79
2021/05/05 09:01:54;;;;;;;2.40;1.50;;;7.00;99.90;;;;;;6014310;23;20030;-80
2021/05/05 09:04:21;;;;;;;2.63;1.40;;;7.00;99.90;;;;;;6014504;23;20019;-78
2021/05/05 09:06:57;;;;;;;2.17;1.38;;;6.80;99.90;;;;;;6037593;23;20065;-79
2021/05/05 09:09:35;;;;;;;2.38;1.38;;;6.70;99.90;;;;;;6014270;23;20049;-80
2021/05/05 09:12:13;;;;;;;5.82;2.00;;;6.60;99.90;;;;;;6013556;23;20026;-80
2021/05/05 09:15:00;;;;;;;4.35;1.55;;;6.50;99.90;;;;;;6037502;23;20024;-80
2021/05/05 09:17:34;;;;;;;4.10;2.08;;;6.50;99.90;;;;;;6015346;23;20020;-80
2021/05/05 09:20:13;;;;;;;5.20;2.15;;;6.40;99.90;;;;;;6013404;23;20023;-80
2021/05/05 09:22:48;;;;;;;5.13;2.28;;;6.40;99.90;;;;;;6038788;23;20053;-80
2021/05/05 09:25:30;;;;;;;6.70;1.55;;;6.30;99.90;;;;;;6014719;23;20031;-79
2021/05/05 09:28:18;;;;;;;5.57;1.75;;;6.20;99.90;;;;;;6014468;23;20079;-80
2021/05/05 09:30:52;;;;;;;5.32;2.50;;;6.20;99.90;;;;;;6012946;23;20084;-80
2021/05/05 09:33:30;;;;;;;7.07;2.17;;;6.30;99.90;;;;;;6035837;23;20063;-79
2021/05/05 09:36:03;;;;;;;6.45;2.22;;;6.30;99.90;;;;;;6013522;23;20042;-78
2021/05/05 09:38:48;;;;;;;6.05;2.13;;;6.40;99.90;;;;;;6038015;23;20041;-79
2021/05/05 09:41:29;;;;;;;9.25;2.28;;;6.50;99.90;;;;;;6036833;23;20022;-80
2021/05/05 09:44:07;;;;;;;6.72;2.83;;;6.60;99.90;;;;;;6038730;23;20015;-79
2021/05/05 09:46:47;;;;;;;8.90;2.67;;;6.60;99.90;;;;;;6013620;23;20026;-80
2021/05/05 09:49:35;;;;;;;4.25;2.00;;;6.70;99.90;;;;;;6013465;23;20034;-78
2021/05/05 09:52:10;;;;;;;5.88;2.38;;;6.70;99.90;;;;;;6013209;23;20464;-80
2021/05/05 09:54:39;;;;;;;6.22;2.30;;;6.80;99.90;;;;;;6013218;23;20042;-80
2021/05/05 09:57:16;;;;;;;2.25;1.52;;;6.90;99.90;;;;;;6012412;23;20024;-80
2021/05/05 10:00:10;;;;;;;3.53;1.92;;;6.90;99.90;;;;;;6013080;23;20023;-80
2021/05/05 10:02:56;;;;;;;4.95;1.63;;;6.90;99.90;;;;;;6037022;23;20483;-79
2021/05/05 10:05:31;;;;;;;4.95;1.67;;;6.90;99.90;;;;;;6013345;23;20023;-79
2021/05/05 10:08:04;;;;;;;3.45;1.88;;;6.90;99.90;;;;;;6037217;23;20023;-80
2021/05/05 10:10:39;;;;;;;4.80;1.50;;;7.00;99.90;;;;;;6036784;23;20457;-80
2021/05/05 10:13:09;;;;;;;3.03;1.48;;;7.10;99.90;;;;;;6012861;23;20102;-78
2021/05/05 10:15:37;;;;;;;5.57;1.95;;;7.20;99.90;;;;;;6037353;23;20019;-81
2021/05/05 10:18:13;;;;;;;3.95;1.52;;;7.30;99.90;;;;;;6011450;23;20070;-79
2021/05/05 10:20:44;;;;;;;2.78;1.65;;;7.40;99.90;;;;;;6035592;23;20027;-80
2021/05/05 10:23:16;;;;;;;9.20;1.70;;;7.40;99.90;;;;;;6012626;23;20145;-80
2021/05/05 10:25:46;;;;;;;2.92;1.90;;;7.40;99.90;;;;;;6036885;23;20469;-80
2021/05/05 10:28:14;;;;;;;3.90;1.50;;;7.40;99.90;;;;;;6013020;23;20023;-80
2021/05/05 10:30:43;;;;;;;4.65;1.60;;;7.40;99.90;;;;;;6012433;23;20072;-80
2021/05/05 10:33:19;;;;;;;5.80;1.67;;;7.40;99.90;;;;;;6012703;23;20019;-81
2021/05/05 10:35:47;;;;;;;4.03;1.67;;;7.50;99.90;;;;;;6036536;23;20098;-80
2021/05/05 10:38:34;;;;;;;9.30;1.95;;;7.50;99.90;;;;;;6012822;23;20413;-80
2021/05/05 10:41:08;;;;;;;3.15;1.38;;;7.50;99.90;;;;;;6011811;23;20043;-80
2021/05/05 10:43:58;;;;;;;3.58;1.55;;;7.60;99.90;;;;;;6036326;23;20023;-79
2021/05/05 10:46:31;;;;;;;4.05;2.72;;;7.60;99.90;;;;;;6036602;23;20041;-79
2021/05/05 10:49:09;;;;;;;4.03;1.58;;;7.70;99.90;;;;;;6012934;23;20023;-79
2021/05/05 10:51:46;;;;;;;3.80;1.40;;;7.90;99.90;;;;;;6035252;23;20016;-80
2021/05/05 10:54:14;;;;;;;3.45;2.00;;;8.00;99.90;;;;;;6037337;23;20094;-79
2021/05/05 10:56:45;;;;;;;3.75;1.70;;;8.00;99.90;;;;;;6036589;23;20390;-79
2021/05/05 10:59:12;;;;;;;6.03;1.92;;;8.20;99.90;;;;;;6010355;23;20098;-80
2021/05/05 11:01:42;;;;;;;5.32;1.98;;;8.20;99.90;;;;;;6011985;23;20106;-79
2021/05/05 11:04:14;;;;;;;3.90;1.90;;;8.30;99.90;;;;;;6012392;23;20020;-80
2021/05/05 11:06:42;;;;;;;2.25;1.60;;;8.40;99.90;;;;;;6013024;23;20055;-78
2021/05/05 11:09:15;;;;;;;5.90;1.90;;;8.60;99.90;;;;;;6036243;23;20027;-79
2021/05/05 11:11:44;;;;;;;4.50;1.88;;;8.70;99.90;;;;;;6034980;23;20090;-79
2021/05/05 11:14:30;;;;;;;4.35;2.95;;;8.70;99.90;;;;;;6035397;23;20015;-79
2021/05/05 11:17:06;;;;;;;5.53;2.25;;;8.50;99.90;;;;;;6012738;23;20094;-79
2021/05/05 11:19:42;;;;;;;4.38;1.83;;;8.40;99.90;;;;;;6012033;23;20102;-79
2021/05/05 11:22:19;;;;;;;5.30;1.75;;;8.30;99.90;;;;;;6012059;23;20019;-79
2021/05/05 11:24:52;;;;;;;5.55;1.90;;;8.20;99.90;;;;;;6012909;23;20043;-80
2021/05/05 11:27:46;;;;;;;5.85;1.80;;;8.20;99.90;;;;;;6035162;23;20074;-79
2021/05/05 11:30:39;;;;;;;5.60;1.70;;;8.20;99.90;;;;;;6011133;23;20045;-73
2021/05/05 11:33:07;;;;;;;6.35;2.25;;;8.30;99.90;;;;;;6035098;23;20019;-76
2021/05/05 11:35:39;;;;;;;4.50;3.08;;;8.40;99.90;;;;;;6059229;23;20047;-77
2021/05/05 11:38:10;;;;;;;4.88;2.08;;;8.80;99.90;;;;;;6035315;23;20023;-76
2021/05/05 11:40:37;;;;;;;4.20;2.15;;;9.10;99.90;;;;;;6011312;23;20023;-77
2021/05/05 11:43:17;;;;;;;6.00;1.92;;;9.30;99.90;;;;;;6059107;23;20445;-75
2021/05/05 11:45:52;;;;;;;5.63;1.83;;;9.40;99.90;;;;;;6011871;23;20075;-75
2021/05/05 11:48:25;;;;;;;3.92;2.25;;;9.60;99.90;;;;;;6035324;23;20410;-76
2021/05/05 11:50:52;;;;;;;4.32;2.00;;;9.50;99.90;;;;;;6058818;23;20019;-76
2021/05/05 11:53:28;;;;;;;5.88;1.50;;;9.60;99.90;;;;;;6036542;23;20015;-76
2021/05/05 11:55:55;;;;;;;3.28;1.45;;;9.70;99.90;;;;;;6011573;23;20063;-77
2021/05/05 11:58:22;;;;;;;4.32;1.60;;;9.90;99.90;;;;;;6011523;23;20075;-77
2021/05/05 12:00:48;;;;;;;6.68;1.70;;;9.90;99.90;;;;;;6012448;23;20035;-77
2021/05/05 12:03:15;;;;;;;3.90;1.80;;;10.10;99.90;;;;;;6013353;23;20099;-76
2021/05/05 12:05:47;;;;;;;3.90;1.50;;;10.30;99.90;;;;;;6013548;23;20031;-77
2021/05/05 12:08:20;;;;;;;4.50;3.15;;;10.40;99.90;;;;;;6013242;23;20054;-77
2021/05/05 12:11:00;;;;;;;5.82;2.40;;;10.40;99.90;;;;;;6035326;23;20019;-77
2021/05/05 12:13:40;;;;;;;3.10;1.35;;;10.70;99.90;;;;;;6012723;23;20396;-77
2021/05/05 12:16:17;;;;;;;3.92;1.63;;;10.80;99.90;;;;;;6013033;23;20102;-76
2021/05/05 12:18:49;;;;;;;3.88;1.83;;;10.80;99.90;;;;;;6013501;23;20019;-76
2021/05/05 12:21:20;;;;;;;3.10;1.27;;;10.80;99.90;;;;;;6012928;23;20029;-76
2021/05/05 12:23:52;;;;;;;3.08;1.50;;;10.80;99.90;;;;;;6014459;23;20110;-77
2021/05/05 12:26:21;;;;;;;6.13;1.30;;;10.70;99.90;;;;;;6013289;23;20054;-77
2021/05/05 12:28:50;;;;;;;5.03;1.50;;;10.80;99.90;;;;;;6013340;23;20085;-77
2021/05/05 12:31:21;;;;;;;3.80;1.45;;;10.70;99.90;;;;;;6012615;23;20079;-77
2021/05/05 12:33:49;;;;;;;4.38;1.30;;;10.60;98.80;;;;;;6013728;23;20046;-77
2021/05/05 12:36:26;;;;;;;2.45;1.80;;;10.50;97.60;;;;;;6036201;23;20067;-76
2021/05/05 12:39:00;;;;;;;3.22;1.33;;;10.50;95.10;;;;;;6038991;23;20476;-76
2021/05/05 12:41:47;;;;;;;2.40;1.27;;;10.30;92.90;;;;;;6014157;23;20097;-77
2021/05/05 12:44:20;;;;;;;2.30;1.15;;;10.20;91.60;;;;;;6015317;23;20062;-76
2021/05/05 12:47:07;;;;;;;4.38;1.00;;;10.00;90.40;;;;;;6013419;23;20047;-76
2021/05/05 12:49:35;;;;;;;5.72;1.10;;;9.90;90.40;;;;;;6013743;23;20448;-76
2021/05/05 12:52:03;;;;;;;2.90;1.13;;;9.80;93.40;;;;;;6013045;23;20020;-76
2021/05/05 12:54:44;;;;;;;;;;;9.90;91.20;;;;;;6015465;23;20479;-77
2021/05/05 12:57:17;;;;;;;2.83;1.15;;;9.90;91.00;;;;;;6026922;23;19949;-76
2021/05/05 12:59:44;;;;;;;3.95;1.00;;;10.30;90.50;;;;;;6037135;23;20050;-77
2021/05/05 13:02:24;;;;;;;2.10;1.10;;;10.60;90.80;;;;;;6038362;23;20024;-77
2021/05/05 13:05:07;;;;;;;6.68;1.23;;;10.80;83.50;;;;;;6037609;23;20023;-77
2021/05/05 13:07:41;;;;;;;2.75;0.70;;;10.90;82.00;;;;;;6038149;23;20019;-77
2021/05/05 13:10:23;;;;;;;1.08;0.80;;;10.90;80.90;;;;;;6037984;23;20107;-75
2021/05/05 13:13:09;;;;;;;2.92;1.05;;;10.70;92.80;;;;;;6014463;23;20053;-77
2021/05/05 13:32:55;;;;;;;4.30;1.42;;;8.50;99.90;;;;;;6060480;23;20071;-77
2021/05/05 13:35:28;;;;;;;3.28;1.52;;;8.50;99.90;;;;;;6036897;23;20046;-77
2021/05/05 13:38:04;;;;;;;2.70;1.50;;;8.50;99.90;;;;;;6035702;23;20027;-75
2021/05/05 13:40:49;;;;;;;4.65;1.50;;;8.40;99.90;;;;;;6036248;23;20570;-76
2021/05/05 13:46:27;;;;;;;3.30;1.90;;;9.20;99.90;;;;;;6060762;23;20058;-77